Time;durP1;ratioP1;P1;durP2;ratioP2;P2;SDS_P1;SDS_P2;PMS_P1;PMS_P2;Temp;Humidity;BMP_temperature;BMP_pressure;BME280_temperature;BME280_humidity;BME280_pressure;Samples;Min_cycle;Max_cycle;Signal;HPM_P1;HPM_P2
2020/12/07 00:00:08;;;;;;;27.33;17.73;;;7.50;75.50;;;;;;5003730;28;88885;-74
2020/12/07 00:02:34;;;;;;;24.43;15.83;;;7.50;75.40;;;;;;5002076;28;86985;-74
2020/12/07 00:05:00;;;;;;;23.30;15.70;;;7.50;75.20;;;;;;5000509;28;87780;-74
2020/12/07 00:07:26;;;;;;;22.00;13.93;;;7.40;75.70;;;;;;5000689;28;92087;-74
2020/12/07 00:09:53;;;;;;;22.67;15.07;;;7.40;75.80;;;;;;4999578;28;91819;-74
2020/12/07 00:12:18;;;;;;;22.70;16.07;;;7.40;75.70;;;;;;5000604;28;86833;-74
2020/12/07 00:14:44;;;;;;;25.40;16.63;;;7.40;75.80;;;;;;5000792;28;87888;-74
2020/12/07 00:17:10;;;;;;;24.60;16.60;;;7.30;75.90;;;;;;4983525;28;88790;-74
2020/12/07 00:19:36;;;;;;;26.55;16.70;;;7.30;76.20;;;;;;4984014;28;91384;-75
2020/12/07 00:22:02;;;;;;;26.27;16.57;;;7.20;76.40;;;;;;4979466;28;87841;-76
2020/12/07 00:24:28;;;;;;;25.73;16.20;;;7.10;77.00;;;;;;4980217;28;87091;-75
2020/12/07 00:26:54;;;;;;;28.77;17.77;;;7.00;77.40;;;;;;4963637;28;91589;-74
2020/12/07 00:29:19;;;;;;;27.30;17.67;;;6.90;78.00;;;;;;4982972;28;91129;-74
2020/12/07 00:31:45;;;;;;;26.00;16.13;;;6.80;78.20;;;;;;5001517;28;86991;-75
2020/12/07 00:34:11;;;;;;;24.10;16.40;;;6.80;78.30;;;;;;4982809;28;87763;-74
2020/12/07 00:36:42;;;;;;;27.23;16.10;;;6.70;78.70;;;;;;4999814;28;88047;-76
2020/12/07 00:39:08;;;;;;;23.58;14.77;;;6.60;79.10;;;;;;5000111;28;90760;-74
2020/12/07 00:41:34;;;;;;;26.77;17.37;;;6.60;79.30;;;;;;4983700;28;87040;-75
2020/12/07 00:44:00;;;;;;;23.30;15.37;;;6.70;79.00;;;;;;4981776;28;89264;-75
2020/12/07 00:46:26;;;;;;;22.83;14.97;;;6.70;78.80;;;;;;5016569;28;88563;-74
2020/12/07 00:48:52;;;;;;;25.43;17.93;;;6.70;78.50;;;;;;4999073;28;92326;-74
2020/12/07 00:51:20;;;;;;;27.90;17.90;;;6.80;78.20;;;;;;5001477;28;87132;-74
2020/12/07 00:53:46;;;;;;;31.70;19.87;;;6.80;77.70;;;;;;4999398;28;88446;-74
2020/12/07 00:56:13;;;;;;;31.97;20.37;;;6.90;77.00;;;;;;4982918;28;91810;-74
2020/12/07 00:58:40;;;;;;;27.80;17.70;;;6.90;76.80;;;;;;4998668;28;91392;-75
2020/12/07 01:01:06;;;;;;;25.53;18.13;;;7.00;76.40;;;;;;4999580;28;87610;-75
2020/12/07 01:03:32;;;;;;;26.63;17.77;;;7.00;76.20;;;;;;4995771;28;88119;-75
2020/12/07 01:05:58;;;;;;;31.67;20.23;;;7.00;76.00;;;;;;4979253;28;88202;-75
2020/12/07 01:08:23;;;;;;;27.93;18.40;;;7.00;76.30;;;;;;4979850;28;88093;-74
2020/12/07 01:10:56;;;;;;;28.87;18.53;;;6.90;76.80;;;;;;4985140;28;88328;-75
2020/12/07 01:13:22;;;;;;;26.63;16.60;;;6.80;76.80;;;;;;4975847;28;88182;-74
2020/12/07 01:15:50;;;;;;;28.77;17.53;;;6.80;76.80;;;;;;4978080;28;91470;-74
2020/12/07 01:18:17;;;;;;;24.57;17.10;;;6.80;76.90;;;;;;4979391;28;90111;-74
2020/12/07 01:20:44;;;;;;;25.23;16.83;;;6.80;77.10;;;;;;4978260;28;87146;-74
2020/12/07 01:23:10;;;;;;;29.33;17.53;;;6.80;77.20;;;;;;4981181;28;87945;-74
2020/12/07 01:25:36;;;;;;;27.63;17.50;;;6.70;77.40;;;;;;4978902;28;91726;-76
2020/12/07 01:28:02;;;;;;;27.47;17.50;;;6.60;77.70;;;;;;4996625;28;89048;-74
2020/12/07 01:30:28;;;;;;;22.03;15.17;;;6.70;77.60;;;;;;4991565;28;87352;-74
2020/12/07 01:32:54;;;;;;;24.90;15.73;;;6.60;77.60;;;;;;5009381;28;87069;-74
2020/12/07 01:35:20;;;;;;;24.93;15.90;;;6.60;77.80;;;;;;4978757;28;88118;-74
2020/12/07 01:37:46;;;;;;;22.57;15.57;;;6.60;78.00;;;;;;4961767;28;89807;-75
2020/12/07 01:40:15;;;;;;;28.63;16.47;;;6.50;78.20;;;;;;4962847;28;87259;-74
2020/12/07 01:42:41;;;;;;;24.63;15.83;;;6.40;78.80;;;;;;4981269;28;87196;-75
2020/12/07 01:45:08;;;;;;;20.53;14.83;;;6.30;79.40;;;;;;4978852;28;91577;-74
2020/12/07 01:47:34;;;;;;;21.87;14.80;;;6.20;79.80;;;;;;4978808;28;90995;-75
2020/12/07 01:50:06;;;;;;;23.27;15.10;;;6.20;80.00;;;;;;4978673;28;87439;-75
2020/12/07 01:52:33;;;;;;;22.97;15.80;;;6.10;80.40;;;;;;4966692;28;89056;-75
2020/12/07 01:54:59;;;;;;;23.70;16.03;;;6.10;80.60;;;;;;4977921;28;91516;-75
2020/12/07 01:57:35;;;;;;;23.87;15.80;;;6.10;80.90;;;;;;4981803;28;91759;-75
2020/12/07 02:00:08;;;;;;;24.27;15.83;;;6.00;81.50;;;;;;4998220;28;88240;-74
2020/12/07 02:02:45;;;;;;;27.97;17.23;;;5.90;81.70;;;;;;4996853;28;87019;-74
2020/12/07 02:05:13;;;;;;;24.10;16.23;;;5.90;81.80;;;;;;4998263;28;91066;-74
2020/12/07 02:07:39;;;;;;;23.00;17.00;;;5.90;81.80;;;;;;4981046;28;91862;-75
2020/12/07 02:10:06;;;;;;;25.93;17.10;;;5.90;81.90;;;;;;4978660;28;87242;-75
2020/12/07 02:12:33;;;;;;;24.53;16.07;;;5.80;82.10;;;;;;4970214;28;87237;-75
2020/12/07 02:14:59;;;;;;;23.20;15.80;;;5.80;82.60;;;;;;4996561;28;91435;-75
2020/12/07 02:17:25;;;;;;;22.47;15.07;;;5.70;82.60;;;;;;4998580;28;91591;-74
2020/12/07 02:19:52;;;;;;;27.37;17.17;;;5.70;82.90;;;;;;4997525;28;87000;-75
2020/12/07 02:22:19;;;;;;;21.23;14.50;;;5.70;82.80;;;;;;4979522;28;88174;-75
2020/12/07 02:25:21;;;;;;;22.30;15.67;;;5.70;82.80;;;;;;4973019;28;89160;-75
2020/12/07 02:27:51;;;;;;;24.67;15.83;;;5.60;82.80;;;;;;4977505;28;92596;-75
2020/12/07 02:30:21;;;;;;;23.95;15.82;;;5.60;83.20;;;;;;4990151;28;86944;-74
2020/12/07 02:32:48;;;;;;;22.97;15.60;;;5.50;83.80;;;;;;4998027;28;87067;-75
2020/12/07 02:35:21;;;;;;;25.80;15.73;;;5.50;83.70;;;;;;4994048;28;91915;-74
2020/12/07 02:37:49;;;;;;;24.60;16.17;;;5.50;83.90;;;;;;4978867;28;89918;-75
2020/12/07 02:40:18;;;;;;;23.17;15.57;;;5.60;83.30;;;;;;4982486;28;87327;-76
2020/12/07 02:42:45;;;;;;;22.60;15.40;;;5.50;83.60;;;;;;4997284;28;88209;-75
2020/12/07 02:45:18;;;;;;;25.88;16.40;;;5.50;83.80;;;;;;4980852;28;91546;-75
2020/12/07 02:47:51;;;;;;;23.73;15.40;;;5.50;83.40;;;;;;4988731;28;88814;-75
2020/12/07 02:50:17;;;;;;;26.17;17.17;;;5.50;83.50;;;;;;4997106;28;87946;-75
2020/12/07 02:52:44;;;;;;;24.87;16.03;;;5.50;83.90;;;;;;4988716;28;88349;-75
2020/12/07 02:55:12;;;;;;;24.47;15.57;;;5.40;84.00;;;;;;4961478;28;91669;-75
2020/12/07 02:57:41;;;;;;;23.23;14.87;;;5.40;83.90;;;;;;4961163;28;91914;-75
2020/12/07 03:00:09;;;;;;;25.27;16.10;;;5.30;84.50;;;;;;4997364;28;87161;-75
2020/12/07 03:02:37;;;;;;;22.77;15.27;;;5.40;83.90;;;;;;4997761;28;87453;-75
2020/12/07 03:05:07;;;;;;;25.53;15.43;;;5.50;83.70;;;;;;4981829;28;91954;-75
2020/12/07 03:07:36;;;;;;;21.37;15.13;;;5.60;83.10;;;;;;4998317;28;89790;-75
2020/12/07 03:10:03;;;;;;;21.13;15.07;;;5.50;83.40;;;;;;4991095;28;87677;-75
2020/12/07 03:12:30;;;;;;;25.37;14.87;;;5.40;83.80;;;;;;4977360;28;88208;-75
2020/12/07 03:14:57;;;;;;;21.40;15.13;;;5.40;83.70;;;;;;4976695;28;92682;-75
2020/12/07 03:17:25;;;;;;;23.87;15.90;;;5.50;83.50;;;;;;4961473;28;91933;-74
2020/12/07 03:19:51;;;;;;;23.03;15.63;;;5.40;83.40;;;;;;4976452;28;87256;-75
2020/12/07 03:22:17;;;;;;;23.93;16.33;;;5.40;84.00;;;;;;4982388;28;87405;-75
2020/12/07 03:24:43;;;;;;;24.10;16.10;;;5.40;83.90;;;;;;4996511;28;91506;-75
2020/12/07 03:27:09;;;;;;;23.40;16.47;;;5.40;83.70;;;;;;4997336;28;90933;-75
2020/12/07 03:29:36;;;;;;;24.77;16.40;;;5.40;83.40;;;;;;4980643;28;87541;-76
2020/12/07 03:32:02;;;;;;;25.60;17.53;;;5.40;83.70;;;;;;4997268;28;87145;-75
2020/12/07 03:34:31;;;;;;;26.13;17.30;;;5.30;83.90;;;;;;4995477;28;92105;-75
2020/12/07 03:36:58;;;;;;;23.53;17.33;;;5.30;84.30;;;;;;4996295;28;91347;-75
2020/12/07 03:39:36;;;;;;;25.70;17.53;;;5.30;84.10;;;;;;4984453;28;87966;-76
2020/12/07 03:42:04;;;;;;;24.07;16.50;;;5.30;84.20;;;;;;5000833;28;87850;-75
2020/12/07 03:44:30;;;;;;;24.60;17.10;;;5.30;84.20;;;;;;5000514;28;91992;-75
2020/12/07 03:46:56;;;;;;;24.67;16.90;;;5.30;84.10;;;;;;4997252;28;90076;-74
2020/12/07 03:49:22;;;;;;;24.90;16.87;;;5.30;84.20;;;;;;4983701;28;87547;-75
2020/12/07 03:51:50;;;;;;;23.10;16.33;;;5.30;84.30;;;;;;5000481;28;87607;-75
2020/12/07 03:54:18;;;;;;;24.67;16.60;;;5.30;84.40;;;;;;5001101;28;92068;-75
2020/12/07 03:56:45;;;;;;;20.40;14.73;;;5.30;84.10;;;;;;5001308;28;89993;-75
2020/12/07 03:59:11;;;;;;;22.20;16.10;;;5.30;84.30;;;;;;4993807;28;87511;-75
2020/12/07 04:01:37;;;;;;;23.17;16.13;;;5.30;84.30;;;;;;5011309;28;87517;-75
2020/12/07 04:04:08;;;;;;;24.00;16.43;;;5.30;84.20;;;;;;4999351;28;92895;-75
2020/12/07 04:06:39;;;;;;;23.73;17.73;;;5.30;84.20;;;;;;5000562;28;92154;-75
2020/12/07 04:09:09;;;;;;;26.40;18.20;;;5.30;84.10;;;;;;5000032;28;87016;-74
2020/12/07 04:11:35;;;;;;;27.60;17.67;;;5.30;84.50;;;;;;4997413;28;87269;-74
2020/12/07 04:14:01;;;;;;;25.13;16.77;;;5.20;84.40;;;;;;4999522;28;89063;-74
2020/12/07 04:16:28;;;;;;;24.93;15.53;;;5.30;84.30;;;;;;4999684;28;91170;-75
2020/12/07 04:18:54;;;;;;;21.27;15.47;;;5.20;84.70;;;;;;4999578;28;87431;-74
2020/12/07 04:21:20;;;;;;;20.93;15.30;;;5.10;85.20;;;;;;5000375;28;87323;-75
2020/12/07 04:23:46;;;;;;;21.30;14.47;;;5.10;85.50;;;;;;4989496;28;91150;-75
2020/12/07 04:26:11;;;;;;;25.50;15.50;;;5.10;85.30;;;;;;4979272;28;91855;-74
2020/12/07 04:28:37;;;;;;;25.03;15.63;;;5.20;85.10;;;;;;4998787;28;88323;-76
2020/12/07 04:31:03;;;;;;;22.33;15.77;;;5.20;85.00;;;;;;5000427;28;88318;-75
2020/12/07 04:33:29;;;;;;;22.60;14.80;;;5.20;85.00;;;;;;5000374;28;88588;-75
2020/12/07 04:35:55;;;;;;;25.70;15.97;;;5.20;85.10;;;;;;4994917;28;87747;-74
2020/12/07 04:38:22;;;;;;;23.13;15.37;;;5.10;85.20;;;;;;5007000;28;86964;-74
2020/12/07 04:40:48;;;;;;;25.70;17.47;;;5.10;85.20;;;;;;4999299;28;87616;-75
2020/12/07 04:43:16;;;;;;;26.73;17.73;;;5.00;85.50;;;;;;4999880;28;88396;-75
2020/12/07 04:45:43;;;;;;;29.40;19.90;;;5.00;85.70;;;;;;4999286;28;91420;-75
2020/12/07 04:48:10;;;;;;;23.57;16.60;;;5.10;85.90;;;;;;4983285;28;87492;-74
2020/12/07 04:50:37;;;;;;;22.13;16.60;;;5.10;85.80;;;;;;4978865;28;88355;-74
2020/12/07 04:53:03;;;;;;;24.90;17.00;;;5.00;86.10;;;;;;4956693;28;94088;-75
2020/12/07 04:55:29;;;;;;;23.97;16.63;;;5.00;86.20;;;;;;5001231;28;88909;-75
2020/12/07 04:57:56;;;;;;;25.00;17.70;;;5.00;86.30;;;;;;4998976;28;87505;-75
2020/12/07 05:00:26;;;;;;;23.67;16.90;;;5.00;86.20;;;;;;4997425;28;88030;-74
2020/12/07 05:02:56;;;;;;;23.23;16.50;;;5.10;85.60;;;;;;4998980;28;88233;-75
2020/12/07 05:05:23;;;;;;;21.43;15.50;;;5.10;85.40;;;;;;4999597;28;88439;-74
2020/12/07 05:07:50;;;;;;;18.93;14.73;;;5.10;85.50;;;;;;4998784;28;87067;-74
2020/12/07 05:10:24;;;;;;;22.13;14.27;;;5.20;85.40;;;;;;4999578;28;87924;-74
2020/12/07 05:12:56;;;;;;;19.23;14.43;;;5.20;85.30;;;;;;4991254;28;92148;-75
2020/12/07 05:15:23;;;;;;;;;;;5.20;84.90;;;;;;4999407;28;91568;-74
2020/12/07 05:17:57;;;;;;;20.00;15.13;;;5.30;84.40;;;;;;5000181;28;88031;-75
2020/12/07 05:20:24;;;;;;;20.53;15.27;;;5.30;84.60;;;;;;4973517;28;88322;-74
2020/12/07 05:22:50;;;;;;;20.80;15.20;;;5.30;84.60;;;;;;4978812;28;90822;-75
2020/12/07 05:25:16;;;;;;;27.17;19.10;;;5.30;84.50;;;;;;4990646;28;87894;-75
2020/12/07 05:27:46;;;;;;;27.77;17.93;;;5.30;84.40;;;;;;4969143;28;87083;-75
2020/12/07 05:32:47;;;;;;;21.90;15.47;;;5.40;84.50;;;;;;4998378;28;91896;-75
2020/12/07 05:35:13;;;;;;;24.53;16.57;;;5.40;84.30;;;;;;4999569;28;91386;-74
2020/12/07 05:37:39;;;;;;;25.57;15.93;;;5.40;84.40;;;;;;4998638;28;87219;-75
2020/12/07 05:40:07;;;;;;;22.63;15.20;;;5.40;84.10;;;;;;4999108;28;87173;-74
2020/12/07 05:42:33;;;;;;;22.77;16.00;;;5.50;84.10;;;;;;4998012;28;92912;-75
2020/12/07 05:45:01;;;;;;;22.93;15.63;;;5.60;83.30;;;;;;4998215;28;92966;-75
2020/12/07 05:47:27;;;;;;;22.03;15.87;;;5.70;83.10;;;;;;4999253;28;87319;-75
2020/12/07 05:49:55;;;;;;;23.47;15.13;;;5.60;82.60;;;;;;4996684;28;87622;-74
2020/12/07 05:52:45;;;;;;;22.03;15.63;;;5.60;82.90;;;;;;4981982;28;88192;-75
2020/12/07 05:55:14;;;;;;;23.57;15.60;;;5.70;82.80;;;;;;4980918;28;87733;-75
2020/12/07 05:57:47;;;;;;;21.07;14.30;;;5.70;82.40;;;;;;4991308;28;86849;-76
2020/12/07 06:00:20;;;;;;;19.80;14.47;;;5.80;82.00;;;;;;4978789;28;87454;-75
2020/12/07 06:02:54;;;;;;;23.57;14.77;;;5.80;81.70;;;;;;4988866;28;91158;-75
2020/12/07 06:05:21;;;;;;;17.53;13.50;;;5.80;81.70;;;;;;4968940;28;90113;-75
2020/12/07 06:08:06;;;;;;;22.00;14.60;;;5.80;81.60;;;;;;5001598;28;88327;-76
2020/12/07 06:10:37;;;;;;;21.80;12.83;;;5.80;81.80;;;;;;5003981;28;87424;-76
2020/12/07 06:13:07;;;;;;;20.73;12.73;;;5.70;81.70;;;;;;4997342;28;91555;-75
2020/12/07 06:15:33;;;;;;;21.47;13.60;;;5.80;81.80;;;;;;4989292;28;87597;-75
2020/12/07 06:17:59;;;;;;;21.73;13.13;;;5.80;81.60;;;;;;4991761;28;86832;-75
2020/12/07 06:20:30;;;;;;;19.83;12.53;;;5.80;81.40;;;;;;4989720;28;87758;-74
2020/12/07 06:22:59;;;;;;;16.63;11.75;;;5.80;81.40;;;;;;4975810;28;88238;-74
2020/12/07 06:25:32;;;;;;;20.67;12.70;;;5.90;81.30;;;;;;4986804;28;88256;-76
2020/12/07 06:28:01;;;;;;;20.13;11.83;;;5.80;81.30;;;;;;5000508;28;86813;-75
2020/12/07 06:30:33;;;;;;;22.50;11.77;;;5.70;81.80;;;;;;4998073;28;88318;-74
2020/12/07 06:33:05;;;;;;;19.25;12.07;;;5.70;82.00;;;;;;4990193;28;92333;-75
2020/12/07 06:35:31;;;;;;;22.73;12.85;;;5.70;81.80;;;;;;4994343;28;89399;-75
2020/12/07 06:38:01;;;;;;;20.87;12.53;;;5.70;81.80;;;;;;4983774;28;90005;-75
2020/12/07 06:40:29;;;;;;;23.27;13.23;;;5.70;82.20;;;;;;5006109;28;88468;-74
2020/12/07 06:42:55;;;;;;;18.47;12.23;;;5.70;82.00;;;;;;5009127;28;91718;-74
2020/12/07 06:45:27;;;;;;;19.87;13.13;;;5.60;82.40;;;;;;4998455;28;90864;-74
2020/12/07 06:47:53;;;;;;;19.60;12.32;;;5.60;82.90;;;;;;4998342;28;87522;-75
2020/12/07 06:50:22;;;;;;;18.07;12.50;;;5.50;83.10;;;;;;4996398;28;87396;-75
2020/12/07 06:52:49;;;;;;;17.80;12.90;;;5.50;83.40;;;;;;4964427;28;91047;-75
2020/12/07 06:55:17;;;;;;;15.97;12.37;;;5.50;83.50;;;;;;4999624;28;87936;-74
2020/12/07 06:57:44;;;;;;;18.20;13.60;;;5.50;83.70;;;;;;4996440;28;87976;-75
2020/12/07 07:00:15;;;;;;;21.17;12.57;;;5.50;83.80;;;;;;4997405;28;87996;-74
2020/12/07 07:02:45;;;;;;;22.33;14.00;;;5.50;83.50;;;;;;4996624;28;91523;-75
2020/12/07 07:05:15;;;;;;;18.63;14.07;;;5.50;83.50;;;;;;5000698;28;89324;-75
2020/12/07 07:07:44;;;;;;;21.23;12.20;;;5.50;83.30;;;;;;4998687;28;86959;-75
2020/12/07 07:10:12;;;;;;;17.57;12.87;;;5.50;83.30;;;;;;4997308;28;88259;-75
2020/12/07 07:12:39;;;;;;;20.33;15.00;;;5.60;83.10;;;;;;4999103;28;91374;-75
2020/12/07 07:15:08;;;;;;;21.83;13.10;;;5.50;83.10;;;;;;4995537;28;87961;-75
2020/12/07 07:17:43;;;;;;;21.30;14.30;;;5.60;83.00;;;;;;5000043;28;87036;-75
2020/12/07 07:20:13;;;;;;;25.83;14.90;;;5.60;82.60;;;;;;4998692;28;87083;-75
2020/12/07 07:22:43;;;;;;;20.13;13.93;;;5.60;82.40;;;;;;4998181;28;89569;-76
2020/12/07 07:30:21;;;;;;;22.07;15.27;;;5.80;82.00;;;;;;4991290;28;87025;-75
2020/12/07 07:32:49;;;;;;;26.07;16.23;;;5.90;81.40;;;;;;4993264;28;88144;-75
2020/12/07 07:35:19;;;;;;;22.83;16.50;;;5.90;81.40;;;;;;4978840;28;88385;-75
2020/12/07 07:37:45;;;;;;;27.63;17.33;;;5.90;81.30;;;;;;4996352;28;87169;-75
2020/12/07 07:40:16;;;;;;;26.10;18.27;;;6.00;81.20;;;;;;4995648;28;88094;-75
2020/12/07 07:42:52;;;;;;;26.40;17.67;;;6.00;80.70;;;;;;4997818;28;87606;-75
2020/12/07 07:45:21;;;;;;;26.07;17.33;;;6.10;80.60;;;;;;4998737;28;87812;-75
2020/12/07 07:48:00;;;;;;;32.37;17.77;;;6.20;79.90;;;;;;4998845;28;87839;-75
2020/12/07 08:02:12;;;;;;;29.00;18.87;;;6.30;79.20;;;;;;4997812;28;88270;-75
2020/12/07 08:17:12;;;;;;;26.10;16.00;;;6.20;80.10;;;;;;4990093;28;89356;-75
2020/12/07 08:19:38;;;;;;;26.80;15.60;;;6.30;80.00;;;;;;5014274;28;87348;-75
2020/12/07 08:22:15;;;;;;;25.87;17.50;;;6.30;79.70;;;;;;4998648;28;87076;-75
2020/12/07 08:24:57;;;;;;;25.00;16.53;;;6.50;79.30;;;;;;4997564;28;88670;-76
2020/12/07 08:27:34;;;;;;;22.30;15.27;;;6.50;78.90;;;;;;4995094;28;90757;-75
2020/12/07 08:30:04;;;;;;;27.03;15.83;;;6.60;79.10;;;;;;4969228;28;87355;-76
2020/12/07 08:32:30;;;;;;;28.27;16.03;;;6.40;79.40;;;;;;4987769;28;89021;-75
2020/12/07 08:34:56;;;;;;;24.60;15.20;;;6.40;79.80;;;;;;4978344;28;91177;-75
2020/12/07 08:37:22;;;;;;;25.13;15.97;;;6.40;80.00;;;;;;4999355;28;86937;-75
2020/12/07 08:39:48;;;;;;;29.30;17.13;;;6.40;79.90;;;;;;4993257;28;87805;-76
2020/12/07 08:42:14;;;;;;;22.83;15.73;;;6.40;80.60;;;;;;4976080;28;89165;-77
2020/12/07 08:44:40;;;;;;;25.73;17.17;;;6.40;79.90;;;;;;4996412;28;90894;-75
2020/12/07 08:47:10;;;;;;;24.83;16.17;;;6.40;79.90;;;;;;5013443;28;88633;-75
2020/12/07 08:49:36;;;;;;;25.27;17.27;;;6.40;79.80;;;;;;4979934;28;88302;-76
2020/12/07 08:52:03;;;;;;;26.97;17.30;;;6.50;80.00;;;;;;4997879;28;88945;-76
2020/12/07 08:54:29;;;;;;;23.80;16.17;;;6.50;79.80;;;;;;4992398;28;91135;-77
2020/12/07 08:56:55;;;;;;;25.83;15.27;;;6.60;79.60;;;;;;4993742;28;91480;-76
2020/12/07 08:59:21;;;;;;;28.53;18.07;;;6.70;79.00;;;;;;5005245;28;87098;-76
2020/12/07 09:01:47;;;;;;;23.67;15.57;;;6.80;78.40;;;;;;4998745;28;88446;-76
2020/12/07 09:04:13;;;;;;;24.37;14.77;;;6.80;78.40;;;;;;4992878;28;92391;-75
2020/12/07 09:06:40;;;;;;;25.50;14.83;;;6.90;78.00;;;;;;4999819;28;89304;-75
2020/12/07 09:09:09;;;;;;;27.93;16.53;;;7.00;78.00;;;;;;4995935;28;87093;-76
2020/12/07 09:11:36;;;;;;;25.10;16.10;;;7.10;77.10;;;;;;4997079;28;87950;-78
2020/12/07 09:14:02;;;;;;;25.47;16.10;;;7.10;76.90;;;;;;4997635;28;88719;-75
2020/12/07 09:16:28;;;;;;;28.37;17.03;;;7.10;76.90;;;;;;4993421;28;88082;-75
2020/12/07 09:18:54;;;;;;;24.30;16.40;;;7.20;76.70;;;;;;4983508;28;87174;-76
2020/12/07 09:21:20;;;;;;;32.43;18.80;;;7.10;77.50;;;;;;4994267;28;88072;-75
2020/12/07 09:23:46;;;;;;;31.63;19.63;;;7.10;76.80;;;;;;4994997;28;91552;-75
2020/12/07 09:26:12;;;;;;;33.00;20.67;;;7.10;77.40;;;;;;4997285;28;87975;-75
2020/12/07 09:28:38;;;;;;;31.77;20.23;;;7.00;77.90;;;;;;4995095;28;88427;-75
2020/12/07 09:31:05;;;;;;;39.20;22.53;;;7.00;78.00;;;;;;4994982;28;87566;-75
2020/12/07 09:33:32;;;;;;;34.10;20.67;;;7.00;78.10;;;;;;4988850;28;88383;-75
2020/12/07 09:35:58;;;;;;;34.07;22.07;;;7.00;78.40;;;;;;4978579;28;88109;-75
2020/12/07 09:38:24;;;;;;;26.90;19.43;;;7.10;78.30;;;;;;4978781;28;86986;-75
2020/12/07 09:40:50;;;;;;;33.43;20.43;;;7.10;78.00;;;;;;4961607;28;87150;-75
2020/12/07 09:43:16;;;;;;;32.40;19.83;;;7.10;77.70;;;;;;4978380;28;91238;-76
2020/12/07 09:45:42;;;;;;;30.30;18.10;;;7.20;77.30;;;;;;4979216;28;87849;-75
2020/12/07 09:48:08;;;;;;;27.30;18.93;;;7.30;76.90;;;;;;4978205;28;87225;-76
2020/12/07 09:50:34;;;;;;;30.90;18.97;;;7.20;77.20;;;;;;4980204;28;87183;-76
2020/12/07 09:53:01;;;;;;;26.27;17.63;;;7.30;77.00;;;;;;4977363;28;92548;-76
2020/12/07 09:55:27;;;;;;;32.63;18.90;;;7.30;77.30;;;;;;4978635;28;87915;-75
2020/12/07 09:57:53;;;;;;;34.97;18.43;;;7.30;77.10;;;;;;4983306;28;87434;-75
2020/12/07 10:00:19;;;;;;;33.90;18.67;;;7.30;77.10;;;;;;5004368;28;87719;-75
2020/12/07 10:02:46;;;;;;;32.37;19.77;;;7.30;76.80;;;;;;4994216;28;89924;-74
2020/12/07 10:05:13;;;;;;;30.30;18.90;;;7.30;76.80;;;;;;4993670;28;91504;-75
2020/12/07 10:07:38;;;;;;;29.43;18.23;;;7.40;77.10;;;;;;4994967;28;87436;-82
2020/12/07 10:10:04;;;;;;;30.57;18.63;;;7.40;76.30;;;;;;4976617;28;86873;-79
2020/12/07 10:12:32;;;;;;;29.63;19.40;;;7.40;76.20;;;;;;4975181;28;91191;-80
2020/12/07 10:14:57;;;;;;;32.20;18.90;;;7.40;76.20;;;;;;4976533;28;87451;-82
2020/12/07 10:17:23;;;;;;;31.67;18.90;;;7.50;76.30;;;;;;4987085;28;88691;-81
2020/12/07 10:19:49;;;;;;;30.27;19.13;;;7.60;75.80;;;;;;4986860;28;88723;-82
2020/12/07 10:22:15;;;;;;;27.57;18.50;;;7.50;75.80;;;;;;4981703;28;91504;-83
2020/12/07 10:24:41;;;;;;;29.40;19.47;;;7.60;75.90;;;;;;5013689;28;87599;-85
2020/12/07 10:27:07;;;;;;;29.43;18.83;;;7.70;75.70;;;;;;4991788;28;88443;-82
2020/12/07 10:29:32;;;;;;;27.90;18.50;;;7.80;75.20;;;;;;4997431;28;87228;-82
2020/12/07 10:31:59;;;;;;;33.22;19.95;;;7.80;74.80;;;;;;4980388;28;92259;-81
2020/12/07 10:34:24;;;;;;;32.60;18.27;;;7.80;74.80;;;;;;5013423;28;90443;-83
2020/12/07 10:36:50;;;;;;;34.95;19.50;;;7.80;75.50;;;;;;4996818;28;86842;-83
2020/12/07 10:39:16;;;;;;;28.70;19.43;;;7.70;75.60;;;;;;4998763;28;87052;-82
2020/12/07 10:41:42;;;;;;;30.30;19.98;;;7.70;75.90;;;;;;4979802;28;92575;-76
2020/12/07 10:44:08;;;;;;;32.43;20.57;;;7.70;76.00;;;;;;4983171;28;92747;-75
2020/12/07 10:46:37;;;;;;;32.87;20.63;;;7.70;76.20;;;;;;4991237;28;87084;-76
2020/12/07 10:49:05;;;;;;;34.10;19.77;;;7.70;76.30;;;;;;5004322;28;87463;-75
2020/12/07 10:51:31;;;;;;;29.60;19.37;;;7.70;76.10;;;;;;4986787;28;92943;-76
2020/12/07 10:53:58;;;;;;;28.50;19.50;;;7.70;77.00;;;;;;4993820;28;87976;-75
2020/12/07 10:56:24;;;;;;;30.60;19.57;;;7.70;76.40;;;;;;4990847;28;87524;-75
2020/12/07 10:58:50;;;;;;;29.50;19.63;;;7.70;76.60;;;;;;5012964;28;87729;-76
2020/12/07 11:01:17;;;;;;;31.83;20.67;;;7.70;76.50;;;;;;4997681;28;87685;-75
2020/12/07 11:03:45;;;;;;;29.40;19.23;;;7.70;76.60;;;;;;5013565;28;91403;-76
2020/12/07 11:06:17;;;;;;;35.07;20.53;;;7.70;76.50;;;;;;4988721;28;87869;-81
2020/12/07 11:08:51;;;;;;;36.47;19.47;;;7.70;76.50;;;;;;4979449;28;88155;-75
2020/12/07 11:11:19;;;;;;;35.00;19.67;;;7.80;76.40;;;;;;4997116;28;87766;-75
2020/12/07 11:13:45;;;;;;;31.47;20.83;;;7.80;76.30;;;;;;4979805;28;91296;-76
2020/12/07 11:16:13;;;;;;;29.37;19.43;;;7.80;76.00;;;;;;4976420;28;87055;-75
2020/12/07 11:18:39;;;;;;;32.00;20.00;;;7.80;76.10;;;;;;4991164;28;87207;-77
2020/12/07 11:21:16;;;;;;;30.90;18.67;;;7.90;75.80;;;;;;4995486;28;90391;-76
2020/12/07 11:23:48;;;;;;;32.63;19.00;;;8.00;75.20;;;;;;4993912;28;87638;-76
2020/12/07 11:26:15;;;;;;;30.48;19.80;;;8.20;74.60;;;;;;4993964;28;87938;-76
2020/12/07 11:28:42;;;;;;;31.40;21.00;;;8.20;74.00;;;;;;4991900;28;87975;-76
2020/12/07 11:31:13;;;;;;;36.53;21.50;;;8.30;73.80;;;;;;5007244;28;92003;-75
2020/12/07 11:33:39;;;;;;;39.63;24.93;;;8.30;73.60;;;;;;4994263;28;88695;-76
2020/12/07 11:36:05;;;;;;;39.75;25.23;;;8.30;73.40;;;;;;4975779;28;87184;-75
2020/12/07 11:38:39;;;;;;;38.03;22.27;;;8.30;73.70;;;;;;4989351;28;87865;-75
2020/12/07 11:46:36;;;;;;;30.52;18.80;;;8.30;73.50;;;;;;4994297;28;87516;-75
2020/12/07 11:49:03;;;;;;;37.17;21.17;;;8.40;74.40;;;;;;5009025;28;86483;-75
2020/12/07 11:51:30;;;;;;;34.58;19.90;;;8.40;73.60;;;;;;4995585;28;88207;-75
2020/12/07 11:53:56;;;;;;;30.90;19.02;;;8.30;74.20;;;;;;4993495;28;91839;-78
2020/12/07 11:56:33;;;;;;;32.00;20.70;;;8.30;74.20;;;;;;4977053;28;88404;-77
2020/12/07 11:58:59;;;;;;;36.53;20.60;;;8.30;74.30;;;;;;4993611;28;87321;-77
2020/12/07 12:01:26;;;;;;;32.88;20.70;;;8.40;74.20;;;;;;5006657;28;92060;-78
2020/12/07 12:03:52;;;;;;;35.93;21.70;;;8.50;73.90;;;;;;4992471;28;88004;-78
2020/12/07 12:06:20;;;;;;;34.17;21.43;;;8.50;73.60;;;;;;4990555;28;87272;-77
2020/12/07 12:08:46;;;;;;;33.83;20.65;;;8.60;73.50;;;;;;4997443;28;87616;-76
2020/12/07 12:11:12;;;;;;;37.27;20.77;;;8.70;73.40;;;;;;4997464;28;88040;-78
2020/12/07 12:13:37;;;;;;;41.22;23.05;;;8.70;73.10;;;;;;4997488;28;87900;-76
2020/12/07 12:16:03;;;;;;;36.88;20.83;;;8.80;73.10;;;;;;4998319;28;87122;-76
2020/12/07 12:18:30;;;;;;;32.63;21.85;;;8.80;73.00;;;;;;4996233;28;88262;-78
2020/12/07 12:20:55;;;;;;;40.93;21.83;;;8.80;73.00;;;;;;4997946;28;88637;-77
2020/12/07 12:23:21;;;;;;;32.88;20.45;;;8.70;73.40;;;;;;4988867;28;88782;-78
2020/12/07 12:25:47;;;;;;;39.22;22.33;;;8.70;73.80;;;;;;4995605;28;87101;-75
2020/12/07 12:28:13;;;;;;;35.13;23.00;;;8.80;73.40;;;;;;4999655;28;87249;-79
2020/12/07 12:30:41;;;;;;;38.07;23.60;;;8.80;73.20;;;;;;5000457;28;88596;-77
2020/12/07 12:33:06;;;;;;;43.95;24.40;;;8.80;73.50;;;;;;5000715;28;88117;-78
2020/12/07 12:35:32;;;;;;;42.40;23.73;;;8.90;73.40;;;;;;5001069;28;87660;-77
2020/12/07 12:37:58;;;;;;;42.58;23.42;;;8.90;73.40;;;;;;5014185;28;86722;-75
2020/12/07 12:40:24;;;;;;;36.15;21.75;;;8.90;73.40;;;;;;4996791;28;87639;-78
2020/12/07 12:42:52;;;;;;;34.33;21.52;;;8.90;73.10;;;;;;4981971;28;87580;-76
2020/12/07 12:45:18;;;;;;;36.13;21.10;;;8.80;73.50;;;;;;4977770;28;88313;-77
2020/12/07 12:47:44;;;;;;;37.85;21.10;;;8.80;73.50;;;;;;4978552;28;87331;-80
2020/12/07 12:50:10;;;;;;;33.05;20.73;;;8.90;73.00;;;;;;5002587;28;92350;-78
2020/12/07 12:52:38;;;;;;;34.28;21.08;;;9.00;73.10;;;;;;4989353;28;91151;-77
2020/12/07 12:55:04;;;;;;;35.40;21.00;;;9.00;72.60;;;;;;4990129;28;87583;-79
2020/12/07 12:57:30;;;;;;;35.43;21.70;;;9.00;72.70;;;;;;4995936;28;88048;-75
2020/12/07 12:59:56;;;;;;;32.67;20.92;;;9.00;72.80;;;;;;4997567;28;88402;-75
2020/12/07 13:02:21;;;;;;;38.28;21.35;;;9.00;72.70;;;;;;4997086;28;91585;-75
2020/12/07 13:04:48;;;;;;;37.90;20.40;;;9.10;72.50;;;;;;4996756;28;87084;-76
2020/12/07 13:07:14;;;;;;;33.22;21.08;;;9.10;72.80;;;;;;4980146;28;87458;-75
2020/12/07 13:09:41;;;;;;;34.95;19.80;;;9.10;72.70;;;;;;5002987;28;90124;-75
2020/12/07 13:12:07;;;;;;;41.37;22.10;;;9.10;72.80;;;;;;4971454;28;93669;-75
2020/12/07 13:14:32;;;;;;;36.95;21.55;;;9.00;73.10;;;;;;5001899;28;87203;-76
2020/12/07 13:17:10;;;;;;;35.25;21.38;;;9.00;73.60;;;;;;4978893;28;88534;-75